sensor_id;sensor_type;location;lat;lon;timestamp;P1;durP1;ratioP1;P2;durP2;ratioP2
4389;SDS011;2209;48.982;8.406;2023-10-31T00:01:02;1.10;;;1.00;;
4389;SDS011;2209;48.982;8.406;2023-10-31T00:03:25;1.30;;;1.20;;
4389;SDS011;2209;48.982;8.406;2023-10-31T00:05:48;1.30;;;1.20;;
4389;SDS011;2209;48.982;8.406;2023-10-31T00:08:10;1.40;;;0.97;;
4389;SDS011;2209;48.982;8.406;2023-10-31T00:10:33;1.10;;;1.00;;
4389;SDS011;2209;48.982;8.406;2023-10-31T00:12:55;1.77;;;1.00;;
4389;SDS011;2209;48.982;8.406;2023-10-31T00:15:17;2.10;;;1.00;;
4389;SDS011;2209;48.982;8.406;2023-10-31T00:17:40;1.10;;;1.00;;
4389;SDS011;2209;48.982;8.406;2023-10-31T00:20:02;2.23;;;1.00;;
4389;SDS011;2209;48.982;8.406;2023-10-31T00:22:27;1.90;;;0.90;;
4389;SDS011;2209;48.982;8.406;2023-10-31T00:24:49;1.40;;;1.20;;
4389;SDS011;2209;48.982;8.406;2023-10-31T00:27:11;1.13;;;1.03;;
4389;SDS011;2209;48.982;8.406;2023-10-31T00:29:35;2.20;;;0.90;;
4389;SDS011;2209;48.982;8.406;2023-10-31T00:31:57;2.13;;;0.90;;
4389;SDS011;2209;48.982;8.406;2023-10-31T00:34:20;1.70;;;0.93;;
4389;SDS011;2209;48.982;8.406;2023-10-31T00:36:42;1.33;;;0.80;;
4389;SDS011;2209;48.982;8.406;2023-10-31T00:39:06;2.57;;;1.00;;
4389;SDS011;2209;48.982;8.406;2023-10-31T00:41:28;1.77;;;1.00;;
4389;SDS011;2209;48.982;8.406;2023-10-31T00:43:50;1.00;;;0.90;;
4389;SDS011;2209;48.982;8.406;2023-10-31T00:46:13;3.33;;;1.07;;
4389;SDS011;2209;48.982;8.406;2023-10-31T00:48:35;1.67;;;1.00;;
4389;SDS011;2209;48.982;8.406;2023-10-31T00:50:57;3.90;;;1.10;;
4389;SDS011;2209;48.982;8.406;2023-10-31T00:53:20;0.70;;;0.70;;
4389;SDS011;2209;48.982;8.406;2023-10-31T00:55:44;1.67;;;0.70;;
4389;SDS011;2209;48.982;8.406;2023-10-31T00:58:06;1.27;;;0.90;;
4389;SDS011;2209;48.982;8.406;2023-10-31T01:00:29;1.83;;;0.87;;
4389;SDS011;2209;48.982;8.406;2023-10-31T01:02:52;1.00;;;0.90;;
4389;SDS011;2209;48.982;8.406;2023-10-31T01:05:14;1.43;;;0.87;;
4389;SDS011;2209;48.982;8.406;2023-10-31T01:07:36;0.83;;;0.83;;
4389;SDS011;2209;48.982;8.406;2023-10-31T01:09:58;1.77;;;0.97;;
4389;SDS011;2209;48.982;8.406;2023-10-31T01:12:22;0.90;;;0.80;;
4389;SDS011;2209;48.982;8.406;2023-10-31T01:14:44;1.20;;;1.10;;
4389;SDS011;2209;48.982;8.406;2023-10-31T01:17:06;0.80;;;0.80;;
4389;SDS011;2209;48.982;8.406;2023-10-31T01:19:29;0.73;;;0.73;;
4389;SDS011;2209;48.982;8.406;2023-10-31T01:21:52;1.77;;;0.70;;
4389;SDS011;2209;48.982;8.406;2023-10-31T01:24:14;0.90;;;0.80;;
4389;SDS011;2209;48.982;8.406;2023-10-31T01:26:36;1.23;;;0.70;;
4389;SDS011;2209;48.982;8.406;2023-10-31T01:29:00;3.77;;;1.03;;
4389;SDS011;2209;48.982;8.406;2023-10-31T01:31:22;2.17;;;1.00;;
4389;SDS011;2209;48.982;8.406;2023-10-31T01:33:44;1.20;;;1.10;;
4389;SDS011;2209;48.982;8.406;2023-10-31T01:36:07;4.43;;;0.90;;
4389;SDS011;2209;48.982;8.406;2023-10-31T01:38:31;1.00;;;0.80;;
4389;SDS011;2209;48.982;8.406;2023-10-31T01:40:53;1.63;;;0.80;;
4389;SDS011;2209;48.982;8.406;2023-10-31T01:43:28;0.90;;;0.77;;
4389;SDS011;2209;48.982;8.406;2023-10-31T01:45:53;1.60;;;0.87;;
4389;SDS011;2209;48.982;8.406;2023-10-31T01:48:15;1.87;;;0.80;;
4389;SDS011;2209;48.982;8.406;2023-10-31T01:50:37;2.57;;;0.90;;
4389;SDS011;2209;48.982;8.406;2023-10-31T01:52:59;1.83;;;0.80;;
4389;SDS011;2209;48.982;8.406;2023-10-31T01:55:21;0.70;;;0.63;;
4389;SDS011;2209;48.982;8.406;2023-10-31T01:57:47;7.37;;;1.63;;
4389;SDS011;2209;48.982;8.406;2023-10-31T02:00:11;1.67;;;0.80;;
4389;SDS011;2209;48.982;8.406;2023-10-31T02:02:35;3.73;;;0.90;;
4389;SDS011;2209;48.982;8.406;2023-10-31T02:05:01;1.07;;;0.87;;
4389;SDS011;2209;48.982;8.406;2023-10-31T02:07:23;1.10;;;0.90;;
4389;SDS011;2209;48.982;8.406;2023-10-31T02:09:45;1.57;;;0.80;;
4389;SDS011;2209;48.982;8.406;2023-10-31T02:12:08;6.97;;;1.20;;
4389;SDS011;2209;48.982;8.406;2023-10-31T02:14:30;3.23;;;1.40;;
4389;SDS011;2209;48.982;8.406;2023-10-31T02:16:52;1.03;;;0.90;;
4389;SDS011;2209;48.982;8.406;2023-10-31T02:19:16;2.40;;;0.97;;
4389;SDS011;2209;48.982;8.406;2023-10-31T02:21:41;0.80;;;0.80;;
4389;SDS011;2209;48.982;8.406;2023-10-31T02:24:04;0.93;;;0.93;;
4389;SDS011;2209;48.982;8.406;2023-10-31T02:26:29;1.17;;;0.90;;
4389;SDS011;2209;48.982;8.406;2023-10-31T02:28:52;2.50;;;0.90;;
4389;SDS011;2209;48.982;8.406;2023-10-31T02:31:14;1.93;;;1.10;;
4389;SDS011;2209;48.982;8.406;2023-10-31T02:33:37;0.80;;;0.80;;
4389;SDS011;2209;48.982;8.406;2023-10-31T02:35:59;0.83;;;0.70;;
4389;SDS011;2209;48.982;8.406;2023-10-31T02:38:22;2.50;;;1.10;;
4389;SDS011;2209;48.982;8.406;2023-10-31T02:40:44;1.33;;;0.90;;
4389;SDS011;2209;48.982;8.406;2023-10-31T02:43:06;2.77;;;1.10;;
4389;SDS011;2209;48.982;8.406;2023-10-31T02:45:28;1.20;;;1.10;;
4389;SDS011;2209;48.982;8.406;2023-10-31T02:47:50;1.00;;;0.90;;
4389;SDS011;2209;48.982;8.406;2023-10-31T02:50:13;2.40;;;1.00;;
4389;SDS011;2209;48.982;8.406;2023-10-31T02:52:35;1.20;;;0.70;;
4389;SDS011;2209;48.982;8.406;2023-10-31T02:54:58;1.10;;;0.80;;
4389;SDS011;2209;48.982;8.406;2023-10-31T02:57:21;1.00;;;0.90;;
4389;SDS011;2209;48.982;8.406;2023-10-31T02:59:43;0.80;;;0.70;;
4389;SDS011;2209;48.982;8.406;2023-10-31T03:02:05;0.80;;;0.80;;
4389;SDS011;2209;48.982;8.406;2023-10-31T03:04:27;2.60;;;0.97;;
4389;SDS011;2209;48.982;8.406;2023-10-31T03:06:49;2.97;;;1.00;;
4389;SDS011;2209;48.982;8.406;2023-10-31T03:09:11;1.47;;;0.80;;
4389;SDS011;2209;48.982;8.406;2023-10-31T03:11:34;1.00;;;0.90;;
4389;SDS011;2209;48.982;8.406;2023-10-31T03:13:56;1.00;;;1.00;;
4389;SDS011;2209;48.982;8.406;2023-10-31T03:16:18;1.40;;;0.80;;
4389;SDS011;2209;48.982;8.406;2023-10-31T03:18:40;1.30;;;0.90;;
4389;SDS011;2209;48.982;8.406;2023-10-31T03:21:02;0.80;;;0.80;;
4389;SDS011;2209;48.982;8.406;2023-10-31T03:23:25;2.30;;;0.93;;
4389;SDS011;2209;48.982;8.406;2023-10-31T03:25:47;1.37;;;1.00;;
4389;SDS011;2209;48.982;8.406;2023-10-31T03:28:18;1.37;;;0.93;;
4389;SDS011;2209;48.982;8.406;2023-10-31T03:30:43;0.80;;;0.70;;
4389;SDS011;2209;48.982;8.406;2023-10-31T03:33:05;1.67;;;0.80;;
4389;SDS011;2209;48.982;8.406;2023-10-31T03:35:27;2.83;;;0.83;;
4389;SDS011;2209;48.982;8.406;2023-10-31T03:37:49;2.03;;;0.90;;
4389;SDS011;2209;48.982;8.406;2023-10-31T03:40:11;1.10;;;0.90;;
4389;SDS011;2209;48.982;8.406;2023-10-31T03:42:33;0.90;;;0.90;;
4389;SDS011;2209;48.982;8.406;2023-10-31T03:44:57;3.73;;;1.17;;
4389;SDS011;2209;48.982;8.406;2023-10-31T03:47:19;1.83;;;0.80;;
4389;SDS011;2209;48.982;8.406;2023-10-31T03:49:41;1.10;;;1.00;;
4389;SDS011;2209;48.982;8.406;2023-10-31T03:52:03;1.73;;;0.90;;
4389;SDS011;2209;48.982;8.406;2023-10-31T03:54:25;2.10;;;1.07;;
4389;SDS011;2209;48.982;8.406;2023-10-31T03:56:47;2.03;;;1.00;;
4389;SDS011;2209;48.982;8.406;2023-10-31T03:59:10;1.10;;;0.97;;
4389;SDS011;2209;48.982;8.406;2023-10-31T04:01:33;3.43;;;1.07;;
4389;SDS011;2209;48.982;8.406;2023-10-31T04:03:55;0.90;;;0.90;;
4389;SDS011;2209;48.982;8.406;2023-10-31T04:06:17;1.80;;;1.10;;
4389;SDS011;2209;48.982;8.406;2023-10-31T04:08:39;1.20;;;0.87;;
4389;SDS011;2209;48.982;8.406;2023-10-31T04:11:01;3.00;;;0.70;;
4389;SDS011;2209;48.982;8.406;2023-10-31T04:13:24;0.90;;;0.80;;
4389;SDS011;2209;48.982;8.406;2023-10-31T04:15:46;2.90;;;1.20;;
4389;SDS011;2209;48.982;8.406;2023-10-31T04:18:09;3.33;;;1.00;;
4389;SDS011;2209;48.982;8.406;2023-10-31T04:20:31;2.90;;;0.90;;
4389;SDS011;2209;48.982;8.406;2023-10-31T04:22:53;0.83;;;0.80;;
4389;SDS011;2209;48.982;8.406;2023-10-31T04:25:15;4.30;;;0.80;;
4389;SDS011;2209;48.982;8.406;2023-10-31T04:27:37;1.33;;;0.87;;
4389;SDS011;2209;48.982;8.406;2023-10-31T04:29:59;1.23;;;1.10;;
4389;SDS011;2209;48.982;8.406;2023-10-31T04:32:22;5.93;;;1.17;;
4389;SDS011;2209;48.982;8.406;2023-10-31T04:34:46;2.50;;;0.97;;
4389;SDS011;2209;48.982;8.406;2023-10-31T04:37:08;1.00;;;0.90;;
4389;SDS011;2209;48.982;8.406;2023-10-31T04:39:30;1.50;;;0.87;;
4389;SDS011;2209;48.982;8.406;2023-10-31T04:41:52;2.10;;;0.90;;
4389;SDS011;2209;48.982;8.406;2023-10-31T04:44:14;1.03;;;0.83;;
4389;SDS011;2209;48.982;8.406;2023-10-31T04:46:37;1.13;;;1.00;;
4389;SDS011;2209;48.982;8.406;2023-10-31T04:48:59;0.80;;;0.80;;
4389;SDS011;2209;48.982;8.406;2023-10-31T04:51:22;4.57;;;1.10;;
4389;SDS011;2209;48.982;8.406;2023-10-31T04:53:44;1.23;;;0.83;;
4389;SDS011;2209;48.982;8.406;2023-10-31T04:56:11;0.97;;;0.97;;
4389;SDS011;2209;48.982;8.406;2023-10-31T04:58:34;1.20;;;1.00;;
4389;SDS011;2209;48.982;8.406;2023-10-31T05:00:56;1.73;;;1.00;;
4389;SDS011;2209;48.982;8.406;2023-10-31T05:03:18;1.30;;;1.00;;
4389;SDS011;2209;48.982;8.406;2023-10-31T05:05:40;1.00;;;0.83;;
4389;SDS011;2209;48.982;8.406;2023-10-31T05:08:04;1.00;;;0.83;;
4389;SDS011;2209;48.982;8.406;2023-10-31T05:10:26;3.10;;;1.20;;
4389;SDS011;2209;48.982;8.406;2023-10-31T05:12:48;2.20;;;1.10;;
4389;SDS011;2209;48.982;8.406;2023-10-31T05:15:10;1.73;;;0.97;;
4389;SDS011;2209;48.982;8.406;2023-10-31T05:17:33;1.13;;;0.83;;
4389;SDS011;2209;48.982;8.406;2023-10-31T05:19:55;1.17;;;0.97;;
4389;SDS011;2209;48.982;8.406;2023-10-31T05:22:17;1.20;;;1.10;;
4389;SDS011;2209;48.982;8.406;2023-10-31T05:24:40;4.60;;;0.90;;
4389;SDS011;2209;48.982;8.406;2023-10-31T05:27:03;0.93;;;0.70;;
4389;SDS011;2209;48.982;8.406;2023-10-31T05:29:25;3.57;;;0.80;;
4389;SDS011;2209;48.982;8.406;2023-10-31T05:31:47;1.30;;;0.90;;
4389;SDS011;2209;48.982;8.406;2023-10-31T05:34:09;1.33;;;0.80;;
4389;SDS011;2209;48.982;8.406;2023-10-31T05:36:31;1.80;;;0.90;;
4389;SDS011;2209;48.982;8.406;2023-10-31T05:38:53;1.00;;;0.80;;
4389;SDS011;2209;48.982;8.406;2023-10-31T05:41:17;2.07;;;0.90;;
4389;SDS011;2209;48.982;8.406;2023-10-31T05:43:39;4.80;;;1.00;;
4389;SDS011;2209;48.982;8.406;2023-10-31T05:46:01;2.20;;;1.23;;
4389;SDS011;2209;48.982;8.406;2023-10-31T05:48:23;1.70;;;0.90;;
4389;SDS011;2209;48.982;8.406;2023-10-31T05:50:45;3.87;;;1.00;;
4389;SDS011;2209;48.982;8.406;2023-10-31T05:53:07;2.00;;;0.90;;
4389;SDS011;2209;48.982;8.406;2023-10-31T05:55:29;1.10;;;1.00;;
4389;SDS011;2209;48.982;8.406;2023-10-31T05:57:53;0.97;;;0.90;;
4389;SDS011;2209;48.982;8.406;2023-10-31T06:00:15;4.50;;;1.57;;
4389;SDS011;2209;48.982;8.406;2023-10-31T06:02:38;2.20;;;0.90;;
4389;SDS011;2209;48.982;8.406;2023-10-31T06:05:00;0.93;;;0.80;;
4389;SDS011;2209;48.982;8.406;2023-10-31T06:07:22;4.30;;;1.33;;
4389;SDS011;2209;48.982;8.406;2023-10-31T06:09:44;0.90;;;0.80;;
4389;SDS011;2209;48.982;8.406;2023-10-31T06:12:06;0.90;;;0.80;;
4389;SDS011;2209;48.982;8.406;2023-10-31T06:14:29;1.03;;;0.83;;
4389;SDS011;2209;48.982;8.406;2023-10-31T06:16:52;1.73;;;1.20;;
4389;SDS011;2209;48.982;8.406;2023-10-31T06:19:14;3.33;;;0.90;;
4389;SDS011;2209;48.982;8.406;2023-10-31T06:21:36;2.10;;;1.40;;
4389;SDS011;2209;48.982;8.406;2023-10-31T06:23:58;0.93;;;0.80;;
4389;SDS011;2209;48.982;8.406;2023-10-31T06:26:21;2.60;;;0.90;;
4389;SDS011;2209;48.982;8.406;2023-10-31T06:28:43;1.17;;;1.00;;
4389;SDS011;2209;48.982;8.406;2023-10-31T06:31:06;2.70;;;1.10;;
4389;SDS011;2209;48.982;8.406;2023-10-31T06:33:29;3.30;;;1.00;;
4389;SDS011;2209;48.982;8.406;2023-10-31T06:35:51;1.77;;;0.90;;
4389;SDS011;2209;48.982;8.406;2023-10-31T06:38:14;1.10;;;0.90;;
4389;SDS011;2209;48.982;8.406;2023-10-31T06:40:36;4.73;;;1.13;;
4389;SDS011;2209;48.982;8.406;2023-10-31T06:42:58;3.97;;;1.03;;
4389;SDS011;2209;48.982;8.406;2023-10-31T06:45:20;1.70;;;1.23;;
4389;SDS011;2209;48.982;8.406;2023-10-31T06:47:44;1.10;;;1.00;;
4389;SDS011;2209;48.982;8.406;2023-10-31T06:50:06;2.40;;;1.20;;
4389;SDS011;2209;48.982;8.406;2023-10-31T06:52:30;1.33;;;1.20;;
4389;SDS011;2209;48.982;8.406;2023-10-31T06:54:52;1.10;;;0.93;;
4389;SDS011;2209;48.982;8.406;2023-10-31T06:57:14;2.37;;;1.33;;
4389;SDS011;2209;48.982;8.406;2023-10-31T06:59:36;2.10;;;1.43;;
4389;SDS011;2209;48.982;8.406;2023-10-31T07:01:58;2.70;;;1.17;;
4389;SDS011;2209;48.982;8.406;2023-10-31T07:04:22;3.63;;;1.53;;
4389;SDS011;2209;48.982;8.406;2023-10-31T07:06:44;1.10;;;1.00;;
4389;SDS011;2209;48.982;8.406;2023-10-31T07:09:06;1.13;;;1.03;;
4389;SDS011;2209;48.982;8.406;2023-10-31T07:11:29;1.63;;;1.10;;
4389;SDS011;2209;48.982;8.406;2023-10-31T07:13:54;4.77;;;1.27;;
4389;SDS011;2209;48.982;8.406;2023-10-31T07:16:16;8.63;;;1.20;;
4389;SDS011;2209;48.982;8.406;2023-10-31T07:18:38;4.20;;;1.63;;
4389;SDS011;2209;48.982;8.406;2023-10-31T07:21:01;1.60;;;1.40;;
4389;SDS011;2209;48.982;8.406;2023-10-31T07:23:24;2.00;;;1.00;;
4389;SDS011;2209;48.982;8.406;2023-10-31T07:25:46;2.97;;;1.23;;
4389;SDS011;2209;48.982;8.406;2023-10-31T07:28:09;1.50;;;1.30;;
4389;SDS011;2209;48.982;8.406;2023-10-31T07:30:31;1.70;;;1.10;;
4389;SDS011;2209;48.982;8.406;2023-10-31T07:32:53;2.70;;;1.50;;
4389;SDS011;2209;48.982;8.406;2023-10-31T07:35:15;1.53;;;1.10;;
4389;SDS011;2209;48.982;8.406;2023-10-31T07:37:38;2.80;;;1.30;;
4389;SDS011;2209;48.982;8.406;2023-10-31T07:40:00;2.60;;;1.33;;
4389;SDS011;2209;48.982;8.406;2023-10-31T07:42:24;1.27;;;1.17;;
4389;SDS011;2209;48.982;8.406;2023-10-31T07:44:46;5.60;;;1.70;;
4389;SDS011;2209;48.982;8.406;2023-10-31T07:47:10;2.97;;;1.60;;
4389;SDS011;2209;48.982;8.406;2023-10-31T07:49:32;3.20;;;1.53;;
4389;SDS011;2209;48.982;8.406;2023-10-31T07:51:54;4.90;;;1.20;;
4389;SDS011;2209;48.982;8.406;2023-10-31T07:54:17;2.00;;;1.27;;
4389;SDS011;2209;48.982;8.406;2023-10-31T07:56:39;3.67;;;1.57;;
4389;SDS011;2209;48.982;8.406;2023-10-31T07:59:02;2.90;;;1.40;;
4389;SDS011;2209;48.982;8.406;2023-10-31T08:01:25;1.60;;;1.10;;
4389;SDS011;2209;48.982;8.406;2023-10-31T08:03:48;1.40;;;1.30;;
4389;SDS011;2209;48.982;8.406;2023-10-31T08:06:10;2.10;;;1.30;;
4389;SDS011;2209;48.982;8.406;2023-10-31T08:08:32;3.00;;;1.20;;
4389;SDS011;2209;48.982;8.406;2023-10-31T08:10:57;1.40;;;1.07;;
4389;SDS011;2209;48.982;8.406;2023-10-31T08:13:19;1.77;;;1.43;;
4389;SDS011;2209;48.982;8.406;2023-10-31T08:15:41;3.07;;;1.30;;
4389;SDS011;2209;48.982;8.406;2023-10-31T08:18:03;2.17;;;1.53;;
4389;SDS011;2209;48.982;8.406;2023-10-31T08:20:25;3.27;;;1.30;;
4389;SDS011;2209;48.982;8.406;2023-10-31T08:22:53;9.60;;;1.53;;
4389;SDS011;2209;48.982;8.406;2023-10-31T08:25:15;1.97;;;1.27;;
4389;SDS011;2209;48.982;8.406;2023-10-31T08:27:38;1.70;;;1.50;;
4389;SDS011;2209;48.982;8.406;2023-10-31T08:30:00;2.50;;;1.40;;
4389;SDS011;2209;48.982;8.406;2023-10-31T08:32:23;2.30;;;1.40;;
4389;SDS011;2209;48.982;8.406;2023-10-31T08:34:45;5.00;;;1.70;;
4389;SDS011;2209;48.982;8.406;2023-10-31T08:37:07;4.50;;;1.30;;
4389;SDS011;2209;48.982;8.406;2023-10-31T08:39:29;6.70;;;1.73;;
4389;SDS011;2209;48.982;8.406;2023-10-31T08:41:52;3.30;;;1.23;;
4389;SDS011;2209;48.982;8.406;2023-10-31T08:44:16;2.00;;;1.10;;
4389;SDS011;2209;48.982;8.406;2023-10-31T08:46:38;1.73;;;1.50;;
4389;SDS011;2209;48.982;8.406;2023-10-31T08:49:00;2.30;;;1.40;;
4389;SDS011;2209;48.982;8.406;2023-10-31T08:51:23;3.13;;;1.70;;
4389;SDS011;2209;48.982;8.406;2023-10-31T08:53:45;6.30;;;1.87;;
4389;SDS011;2209;48.982;8.406;2023-10-31T08:56:07;4.80;;;1.67;;
4389;SDS011;2209;48.982;8.406;2023-10-31T08:58:31;3.80;;;1.43;;
4389;SDS011;2209;48.982;8.406;2023-10-31T09:00:54;7.03;;;2.00;;
4389;SDS011;2209;48.982;8.406;2023-10-31T09:03:16;2.57;;;1.40;;
4389;SDS011;2209;48.982;8.406;2023-10-31T09:05:39;1.87;;;1.40;;
4389;SDS011;2209;48.982;8.406;2023-10-31T09:08:03;3.27;;;1.30;;
4389;SDS011;2209;48.982;8.406;2023-10-31T09:10:25;3.27;;;1.30;;
4389;SDS011;2209;48.982;8.406;2023-10-31T09:12:48;2.80;;;1.30;;
4389;SDS011;2209;48.982;8.406;2023-10-31T09:15:10;3.00;;;1.83;;
4389;SDS011;2209;48.982;8.406;2023-10-31T09:17:34;2.80;;;1.30;;
4389;SDS011;2209;48.982;8.406;2023-10-31T09:19:56;1.93;;;1.73;;
4389;SDS011;2209;48.982;8.406;2023-10-31T09:22:19;2.40;;;1.43;;
4389;SDS011;2209;48.982;8.406;2023-10-31T09:24:41;2.53;;;1.60;;
4389;SDS011;2209;48.982;8.406;2023-10-31T09:27:04;6.33;;;2.00;;
4389;SDS011;2209;48.982;8.406;2023-10-31T09:29:26;2.67;;;1.60;;
4389;SDS011;2209;48.982;8.406;2023-10-31T09:31:48;3.07;;;1.40;;
4389;SDS011;2209;48.982;8.406;2023-10-31T09:34:11;3.00;;;2.00;;
4389;SDS011;2209;48.982;8.406;2023-10-31T09:36:33;4.80;;;2.30;;
4389;SDS011;2209;48.982;8.406;2023-10-31T09:38:56;3.60;;;1.73;;
4389;SDS011;2209;48.982;8.406;2023-10-31T09:41:18;5.07;;;1.73;;
4389;SDS011;2209;48.982;8.406;2023-10-31T09:43:40;3.00;;;1.30;;
4389;SDS011;2209;48.982;8.406;2023-10-31T09:46:02;4.40;;;1.70;;
4389;SDS011;2209;48.982;8.406;2023-10-31T09:48:25;2.70;;;1.57;;
4389;SDS011;2209;48.982;8.406;2023-10-31T09:50:49;3.83;;;1.83;;
4389;SDS011;2209;48.982;8.406;2023-10-31T09:53:11;7.97;;;1.77;;
4389;SDS011;2209;48.982;8.406;2023-10-31T09:55:35;1.77;;;1.50;;
4389;SDS011;2209;48.982;8.406;2023-10-31T09:57:58;2.80;;;1.50;;
4389;SDS011;2209;48.982;8.406;2023-10-31T10:00:21;2.50;;;1.63;;
4389;SDS011;2209;48.982;8.406;2023-10-31T10:02:43;4.97;;;1.93;;
4389;SDS011;2209;48.982;8.406;2023-10-31T10:05:06;4.50;;;1.80;;
4389;SDS011;2209;48.982;8.406;2023-10-31T10:07:32;3.93;;;1.50;;
4389;SDS011;2209;48.982;8.406;2023-10-31T10:09:55;8.60;;;2.10;;
4389;SDS011;2209;48.982;8.406;2023-10-31T10:12:17;3.90;;;2.27;;
4389;SDS011;2209;48.982;8.406;2023-10-31T10:14:40;1.97;;;1.60;;
4389;SDS011;2209;48.982;8.406;2023-10-31T10:17:02;5.30;;;1.50;;
4389;SDS011;2209;48.982;8.406;2023-10-31T10:19:35;4.17;;;1.53;;
4389;SDS011;2209;48.982;8.406;2023-10-31T10:21:57;4.13;;;1.70;;
4389;SDS011;2209;48.982;8.406;2023-10-31T10:24:21;4.60;;;1.80;;
4389;SDS011;2209;48.982;8.406;2023-10-31T10:26:45;3.47;;;1.43;;
4389;SDS011;2209;48.982;8.406;2023-10-31T10:29:07;2.80;;;1.43;;
4389;SDS011;2209;48.982;8.406;2023-10-31T10:31:29;3.13;;;1.50;;
4389;SDS011;2209;48.982;8.406;2023-10-31T10:33:51;2.37;;;1.60;;
4389;SDS011;2209;48.982;8.406;2023-10-31T10:36:14;2.03;;;1.60;;
4389;SDS011;2209;48.982;8.406;2023-10-31T10:38:36;2.80;;;2.00;;
4389;SDS011;2209;48.982;8.406;2023-10-31T10:41:00;2.23;;;1.10;;
4389;SDS011;2209;48.982;8.406;2023-10-31T10:43:25;5.37;;;1.60;;
4389;SDS011;2209;48.982;8.406;2023-10-31T10:45:49;3.63;;;1.60;;
4389;SDS011;2209;48.982;8.406;2023-10-31T10:48:16;1.87;;;1.50;;
4389;SDS011;2209;48.982;8.406;2023-10-31T10:50:42;3.00;;;1.30;;
4389;SDS011;2209;48.982;8.406;2023-10-31T10:53:07;1.80;;;1.17;;
4389;SDS011;2209;48.982;8.406;2023-10-31T10:55:36;5.73;;;1.97;;
4389;SDS011;2209;48.982;8.406;2023-10-31T10:58:07;3.33;;;1.50;;
4389;SDS011;2209;48.982;8.406;2023-10-31T11:00:33;5.93;;;2.00;;
4389;SDS011;2209;48.982;8.406;2023-10-31T11:02:56;1.87;;;1.50;;
4389;SDS011;2209;48.982;8.406;2023-10-31T11:05:21;3.83;;;1.50;;
4389;SDS011;2209;48.982;8.406;2023-10-31T11:07:45;2.00;;;1.73;;
4389;SDS011;2209;48.982;8.406;2023-10-31T11:10:08;4.33;;;1.67;;
4389;SDS011;2209;48.982;8.406;2023-10-31T11:12:30;2.70;;;1.47;;
4389;SDS011;2209;48.982;8.406;2023-10-31T11:14:54;6.03;;;1.67;;
4389;SDS011;2209;48.982;8.406;2023-10-31T11:17:19;4.23;;;1.90;;
4389;SDS011;2209;48.982;8.406;2023-10-31T11:19:46;2.27;;;1.73;;
4389;SDS011;2209;48.982;8.406;2023-10-31T11:22:08;2.03;;;1.50;;
4389;SDS011;2209;48.982;8.406;2023-10-31T11:24:32;3.30;;;2.23;;
4389;SDS011;2209;48.982;8.406;2023-10-31T11:26:58;3.33;;;1.90;;
4389;SDS011;2209;48.982;8.406;2023-10-31T11:29:21;5.50;;;3.00;;
4389;SDS011;2209;48.982;8.406;2023-10-31T11:31:45;2.23;;;1.60;;
4389;SDS011;2209;48.982;8.406;2023-10-31T11:34:08;4.23;;;1.90;;
4389;SDS011;2209;48.982;8.406;2023-10-31T11:36:30;3.77;;;2.20;;
4389;SDS011;2209;48.982;8.406;2023-10-31T11:39:00;7.97;;;3.07;;
4389;SDS011;2209;48.982;8.406;2023-10-31T11:41:33;2.63;;;2.17;;
4389;SDS011;2209;48.982;8.406;2023-10-31T11:43:55;3.33;;;2.37;;
4389;SDS011;2209;48.982;8.406;2023-10-31T11:46:18;6.10;;;2.43;;
4389;SDS011;2209;48.982;8.406;2023-10-31T11:48:45;3.73;;;2.03;;
4389;SDS011;2209;48.982;8.406;2023-10-31T11:51:08;4.70;;;2.17;;
4389;SDS011;2209;48.982;8.406;2023-10-31T11:53:30;2.70;;;1.93;;
4389;SDS011;2209;48.982;8.406;2023-10-31T11:55:52;5.57;;;2.70;;
4389;SDS011;2209;48.982;8.406;2023-10-31T11:58:17;3.17;;;2.70;;
4389;SDS011;2209;48.982;8.406;2023-10-31T12:00:40;4.77;;;2.27;;
4389;SDS011;2209;48.982;8.406;2023-10-31T12:03:02;3.47;;;2.13;;
4389;SDS011;2209;48.982;8.406;2023-10-31T12:05:26;2.17;;;1.80;;
4389;SDS011;2209;48.982;8.406;2023-10-31T12:07:48;2.07;;;1.73;;
4389;SDS011;2209;48.982;8.406;2023-10-31T12:10:10;3.70;;;2.50;;
4389;SDS011;2209;48.982;8.406;2023-10-31T12:12:33;5.23;;;1.90;;
4389;SDS011;2209;48.982;8.406;2023-10-31T12:15:03;4.50;;;1.83;;
4389;SDS011;2209;48.982;8.406;2023-10-31T12:17:27;8.77;;;2.20;;
4389;SDS011;2209;48.982;8.406;2023-10-31T12:19:49;3.47;;;1.37;;
4389;SDS011;2209;48.982;8.406;2023-10-31T12:22:18;2.60;;;1.43;;
4389;SDS011;2209;48.982;8.406;2023-10-31T12:24:41;2.00;;;1.80;;
4389;SDS011;2209;48.982;8.406;2023-10-31T12:27:03;2.10;;;1.67;;
4389;SDS011;2209;48.982;8.406;2023-10-31T12:29:25;1.77;;;1.20;;
4389;SDS011;2209;48.982;8.406;2023-10-31T12:31:48;4.10;;;1.33;;
4389;SDS011;2209;48.982;8.406;2023-10-31T12:34:12;3.23;;;1.80;;
4389;SDS011;2209;48.982;8.406;2023-10-31T12:36:35;4.20;;;1.20;;
4389;SDS011;2209;48.982;8.406;2023-10-31T12:38:59;2.70;;;1.20;;
4389;SDS011;2209;48.982;8.406;2023-10-31T12:41:21;4.57;;;2.00;;
4389;SDS011;2209;48.982;8.406;2023-10-31T12:43:44;3.27;;;1.97;;
4389;SDS011;2209;48.982;8.406;2023-10-31T12:46:25;1.40;;;1.27;;
4389;SDS011;2209;48.982;8.406;2023-10-31T12:48:49;4.50;;;1.40;;
4389;SDS011;2209;48.982;8.406;2023-10-31T12:51:11;3.90;;;1.30;;
4389;SDS011;2209;48.982;8.406;2023-10-31T12:53:33;2.23;;;1.60;;
4389;SDS011;2209;48.982;8.406;2023-10-31T12:55:57;2.87;;;1.23;;
4389;SDS011;2209;48.982;8.406;2023-10-31T12:58:19;2.13;;;1.20;;
4389;SDS011;2209;48.982;8.406;2023-10-31T13:00:43;1.40;;;1.10;;
4389;SDS011;2209;48.982;8.406;2023-10-31T13:03:07;1.30;;;1.20;;
4389;SDS011;2209;48.982;8.406;2023-10-31T13:05:31;2.07;;;1.20;;
4389;SDS011;2209;48.982;8.406;2023-10-31T13:07:53;2.80;;;1.67;;
4389;SDS011;2209;48.982;8.406;2023-10-31T13:10:17;1.60;;;1.47;;
4389;SDS011;2209;48.982;8.406;2023-10-31T13:12:42;2.40;;;1.17;;
4389;SDS011;2209;48.982;8.406;2023-10-31T13:15:05;3.30;;;1.47;;
4389;SDS011;2209;48.982;8.406;2023-10-31T13:17:28;2.03;;;1.40;;
4389;SDS011;2209;48.982;8.406;2023-10-31T13:19:51;1.30;;;1.20;;
4389;SDS011;2209;48.982;8.406;2023-10-31T13:22:13;1.30;;;1.10;;
4389;SDS011;2209;48.982;8.406;2023-10-31T13:24:35;1.77;;;1.43;;
4389;SDS011;2209;48.982;8.406;2023-10-31T13:26:57;2.00;;;1.20;;
4389;SDS011;2209;48.982;8.406;2023-10-31T13:29:21;4.40;;;1.37;;
4389;SDS011;2209;48.982;8.406;2023-10-31T13:31:45;3.10;;;1.40;;
4389;SDS011;2209;48.982;8.406;2023-10-31T13:34:07;1.57;;;1.10;;
4389;SDS011;2209;48.982;8.406;2023-10-31T13:36:31;2.17;;;1.20;;
4389;SDS011;2209;48.982;8.406;2023-10-31T13:38:53;1.07;;;0.97;;
4389;SDS011;2209;48.982;8.406;2023-10-31T13:41:15;1.43;;;1.20;;
4389;SDS011;2209;48.982;8.406;2023-10-31T13:43:37;3.10;;;1.40;;
4389;SDS011;2209;48.982;8.406;2023-10-31T13:46:00;2.50;;;1.33;;
4389;SDS011;2209;48.982;8.406;2023-10-31T13:48:23;2.13;;;1.27;;
4389;SDS011;2209;48.982;8.406;2023-10-31T13:50:45;2.40;;;1.20;;
4389;SDS011;2209;48.982;8.406;2023-10-31T13:53:07;3.50;;;1.40;;
4389;SDS011;2209;48.982;8.406;2023-10-31T13:55:29;1.97;;;1.40;;
4389;SDS011;2209;48.982;8.406;2023-10-31T13:57:51;2.30;;;1.70;;
4389;SDS011;2209;48.982;8.406;2023-10-31T14:00:13;4.30;;;1.97;;
4389;SDS011;2209;48.982;8.406;2023-10-31T14:02:36;3.43;;;1.80;;
4389;SDS011;2209;48.982;8.406;2023-10-31T14:05:00;1.83;;;1.40;;
4389;SDS011;2209;48.982;8.406;2023-10-31T14:07:22;1.50;;;1.40;;
4389;SDS011;2209;48.982;8.406;2023-10-31T14:09:44;1.47;;;1.10;;
4389;SDS011;2209;48.982;8.406;2023-10-31T14:12:08;1.87;;;1.20;;
4389;SDS011;2209;48.982;8.406;2023-10-31T14:14:30;2.60;;;1.70;;
4389;SDS011;2209;48.982;8.406;2023-10-31T14:16:52;1.63;;;1.53;;
4389;SDS011;2209;48.982;8.406;2023-10-31T14:19:15;1.47;;;1.37;;
4389;SDS011;2209;48.982;8.406;2023-10-31T14:21:38;4.30;;;1.37;;
4389;SDS011;2209;48.982;8.406;2023-10-31T14:24:02;1.27;;;1.10;;
4389;SDS011;2209;48.982;8.406;2023-10-31T14:26:26;1.40;;;1.30;;
4389;SDS011;2209;48.982;8.406;2023-10-31T14:28:48;1.13;;;1.03;;
4389;SDS011;2209;48.982;8.406;2023-10-31T14:31:11;1.63;;;1.50;;
4389;SDS011;2209;48.982;8.406;2023-10-31T14:33:33;3.17;;;1.20;;
4389;SDS011;2209;48.982;8.406;2023-10-31T14:35:56;1.70;;;1.60;;
4389;SDS011;2209;48.982;8.406;2023-10-31T14:38:18;3.00;;;1.37;;
4389;SDS011;2209;48.982;8.406;2023-10-31T14:40:40;1.40;;;1.30;;
4389;SDS011;2209;48.982;8.406;2023-10-31T14:43:02;1.90;;;1.70;;
4389;SDS011;2209;48.982;8.406;2023-10-31T14:45:24;3.37;;;1.70;;
4389;SDS011;2209;48.982;8.406;2023-10-31T14:47:46;2.10;;;1.40;;